sensor_id;sensor_type;location;lat;lon;timestamp;P1;durP1;ratioP1;P2;durP2;ratioP2
49109;SDS011;34921;52.320;16.142;2023-07-31T00:02:23;6.55;;;1.85;;
49109;SDS011;34921;52.320;16.142;2023-07-31T00:04:50;2.75;;;1.60;;
49109;SDS011;34921;52.320;16.142;2023-07-31T00:07:18;3.98;;;1.82;;
49109;SDS011;34921;52.320;16.142;2023-07-31T00:09:46;3.90;;;1.70;;
49109;SDS011;34921;52.320;16.142;2023-07-31T00:12:14;4.58;;;2.00;;
49109;SDS011;34921;52.320;16.142;2023-07-31T00:14:42;3.20;;;1.80;;
49109;SDS011;34921;52.320;16.142;2023-07-31T00:17:10;4.62;;;1.95;;
49109;SDS011;34921;52.320;16.142;2023-07-31T00:19:38;3.52;;;1.92;;
49109;SDS011;34921;52.320;16.142;2023-07-31T00:22:05;2.85;;;1.70;;
49109;SDS011;34921;52.320;16.142;2023-07-31T00:24:33;5.25;;;1.80;;
49109;SDS011;34921;52.320;16.142;2023-07-31T00:27:01;3.47;;;1.80;;
49109;SDS011;34921;52.320;16.142;2023-07-31T00:29:29;5.65;;;1.62;;
49109;SDS011;34921;52.320;16.142;2023-07-31T00:31:58;4.78;;;1.95;;
49109;SDS011;34921;52.320;16.142;2023-07-31T00:34:26;3.12;;;1.90;;
49109;SDS011;34921;52.320;16.142;2023-07-31T00:36:54;3.62;;;1.65;;
49109;SDS011;34921;52.320;16.142;2023-07-31T00:39:22;4.22;;;1.60;;
49109;SDS011;34921;52.320;16.142;2023-07-31T00:41:50;3.37;;;1.80;;
49109;SDS011;34921;52.320;16.142;2023-07-31T00:44:17;3.92;;;1.77;;
49109;SDS011;34921;52.320;16.142;2023-07-31T00:46:45;2.87;;;1.70;;
49109;SDS011;34921;52.320;16.142;2023-07-31T00:49:13;4.45;;;1.92;;
49109;SDS011;34921;52.320;16.142;2023-07-31T00:51:41;3.98;;;1.90;;
49109;SDS011;34921;52.320;16.142;2023-07-31T00:54:09;3.35;;;1.77;;
49109;SDS011;34921;52.320;16.142;2023-07-31T00:56:37;6.25;;;1.90;;
49109;SDS011;34921;52.320;16.142;2023-07-31T00:59:05;4.45;;;1.98;;
49109;SDS011;34921;52.320;16.142;2023-07-31T01:01:33;3.22;;;1.70;;
49109;SDS011;34921;52.320;16.142;2023-07-31T01:04:01;3.67;;;2.00;;
49109;SDS011;34921;52.320;16.142;2023-07-31T01:12:22;4.00;;;1.80;;
49109;SDS011;34921;52.320;16.142;2023-07-31T01:15:01;4.12;;;1.80;;
49109;SDS011;34921;52.320;16.142;2023-07-31T01:17:30;4.20;;;1.80;;
49109;SDS011;34921;52.320;16.142;2023-07-31T01:19:59;6.75;;;1.92;;
49109;SDS011;34921;52.320;16.142;2023-07-31T01:22:33;5.05;;;1.85;;
49109;SDS011;34921;52.320;16.142;2023-07-31T01:28:55;5.62;;;2.00;;
49109;SDS011;34921;52.320;16.142;2023-07-31T01:31:38;4.00;;;2.08;;
49109;SDS011;34921;52.320;16.142;2023-07-31T01:34:07;5.05;;;2.02;;
49109;SDS011;34921;52.320;16.142;2023-07-31T01:36:36;4.53;;;2.20;;
49109;SDS011;34921;52.320;16.142;2023-07-31T01:39:04;5.95;;;1.95;;
49109;SDS011;34921;52.320;16.142;2023-07-31T01:41:32;4.25;;;2.15;;
49109;SDS011;34921;52.320;16.142;2023-07-31T01:44:00;7.80;;;2.10;;
49109;SDS011;34921;52.320;16.142;2023-07-31T01:46:28;6.40;;;2.02;;
49109;SDS011;34921;52.320;16.142;2023-07-31T01:48:55;3.33;;;1.95;;
49109;SDS011;34921;52.320;16.142;2023-07-31T01:51:23;5.95;;;2.25;;
49109;SDS011;34921;52.320;16.142;2023-07-31T01:53:51;4.97;;;2.22;;
49109;SDS011;34921;52.320;16.142;2023-07-31T01:56:19;5.92;;;2.02;;
49109;SDS011;34921;52.320;16.142;2023-07-31T01:58:47;5.20;;;2.40;;
49109;SDS011;34921;52.320;16.142;2023-07-31T02:01:15;6.40;;;2.20;;
49109;SDS011;34921;52.320;16.142;2023-07-31T02:03:43;3.17;;;1.98;;
49109;SDS011;34921;52.320;16.142;2023-07-31T02:06:11;5.55;;;2.58;;
49109;SDS011;34921;52.320;16.142;2023-07-31T02:08:39;4.42;;;2.35;;
49109;SDS011;34921;52.320;16.142;2023-07-31T02:11:07;5.22;;;2.37;;
49109;SDS011;34921;52.320;16.142;2023-07-31T02:13:34;4.45;;;2.30;;
49109;SDS011;34921;52.320;16.142;2023-07-31T02:16:02;4.80;;;2.20;;
49109;SDS011;34921;52.320;16.142;2023-07-31T02:18:30;5.95;;;2.27;;
49109;SDS011;34921;52.320;16.142;2023-07-31T02:20:58;4.00;;;2.10;;
49109;SDS011;34921;52.320;16.142;2023-07-31T02:23:26;4.47;;;2.25;;
49109;SDS011;34921;52.320;16.142;2023-07-31T02:25:54;4.30;;;2.25;;
49109;SDS011;34921;52.320;16.142;2023-07-31T02:28:22;5.95;;;2.75;;
49109;SDS011;34921;52.320;16.142;2023-07-31T02:30:50;5.72;;;2.20;;
49109;SDS011;34921;52.320;16.142;2023-07-31T02:33:19;4.97;;;2.20;;
49109;SDS011;34921;52.320;16.142;2023-07-31T02:35:47;4.70;;;2.00;;
49109;SDS011;34921;52.320;16.142;2023-07-31T02:38:15;3.72;;;2.37;;
49109;SDS011;34921;52.320;16.142;2023-07-31T02:40:43;4.78;;;2.45;;
49109;SDS011;34921;52.320;16.142;2023-07-31T02:43:11;5.72;;;2.47;;
49109;SDS011;34921;52.320;16.142;2023-07-31T02:45:39;3.87;;;2.10;;
49109;SDS011;34921;52.320;16.142;2023-07-31T02:48:06;6.12;;;2.62;;
49109;SDS011;34921;52.320;16.142;2023-07-31T02:50:34;4.22;;;2.33;;
49109;SDS011;34921;52.320;16.142;2023-07-31T02:53:02;4.65;;;2.60;;
49109;SDS011;34921;52.320;16.142;2023-07-31T02:55:30;4.58;;;2.52;;
49109;SDS011;34921;52.320;16.142;2023-07-31T02:57:58;5.62;;;2.70;;
49109;SDS011;34921;52.320;16.142;2023-07-31T03:00:26;4.90;;;2.50;;
49109;SDS011;34921;52.320;16.142;2023-07-31T03:02:55;5.87;;;2.65;;
49109;SDS011;34921;52.320;16.142;2023-07-31T03:05:22;4.17;;;2.12;;
49109;SDS011;34921;52.320;16.142;2023-07-31T03:07:51;6.92;;;2.60;;
49109;SDS011;34921;52.320;16.142;2023-07-31T03:10:18;5.12;;;2.90;;
49109;SDS011;34921;52.320;16.142;2023-07-31T03:12:47;5.12;;;2.35;;
49109;SDS011;34921;52.320;16.142;2023-07-31T03:15:15;5.65;;;2.50;;
49109;SDS011;34921;52.320;16.142;2023-07-31T03:17:43;4.78;;;2.70;;
49109;SDS011;34921;52.320;16.142;2023-07-31T03:20:11;5.28;;;2.58;;
49109;SDS011;34921;52.320;16.142;2023-07-31T03:22:39;5.08;;;2.60;;
49109;SDS011;34921;52.320;16.142;2023-07-31T03:25:07;6.15;;;2.65;;
49109;SDS011;34921;52.320;16.142;2023-07-31T03:27:37;5.25;;;2.72;;
49109;SDS011;34921;52.320;16.142;2023-07-31T03:30:05;7.72;;;2.40;;
49109;SDS011;34921;52.320;16.142;2023-07-31T03:32:33;4.20;;;2.50;;
49109;SDS011;34921;52.320;16.142;2023-07-31T03:35:01;6.20;;;2.70;;
49109;SDS011;34921;52.320;16.142;2023-07-31T03:37:29;12.07;;;2.92;;
49109;SDS011;34921;52.320;16.142;2023-07-31T03:39:57;5.03;;;2.53;;
49109;SDS011;34921;52.320;16.142;2023-07-31T03:42:25;5.25;;;2.30;;
49109;SDS011;34921;52.320;16.142;2023-07-31T03:44:53;5.20;;;2.50;;
49109;SDS011;34921;52.320;16.142;2023-07-31T03:47:21;6.70;;;2.72;;
49109;SDS011;34921;52.320;16.142;2023-07-31T03:49:49;7.03;;;3.05;;
49109;SDS011;34921;52.320;16.142;2023-07-31T03:52:17;6.53;;;3.05;;
49109;SDS011;34921;52.320;16.142;2023-07-31T03:54:44;6.27;;;2.87;;
49109;SDS011;34921;52.320;16.142;2023-07-31T03:57:13;7.45;;;2.87;;
49109;SDS011;34921;52.320;16.142;2023-07-31T03:59:41;7.12;;;2.92;;
49109;SDS011;34921;52.320;16.142;2023-07-31T04:02:09;7.25;;;2.92;;
49109;SDS011;34921;52.320;16.142;2023-07-31T04:04:36;4.58;;;2.60;;
49109;SDS011;34921;52.320;16.142;2023-07-31T04:07:04;5.78;;;3.00;;
49109;SDS011;34921;52.320;16.142;2023-07-31T04:09:32;5.60;;;2.72;;
49109;SDS011;34921;52.320;16.142;2023-07-31T04:12:00;4.78;;;2.92;;
49109;SDS011;34921;52.320;16.142;2023-07-31T04:14:28;6.35;;;2.50;;
49109;SDS011;34921;52.320;16.142;2023-07-31T04:16:56;6.25;;;2.80;;
49109;SDS011;34921;52.320;16.142;2023-07-31T04:19:24;5.40;;;2.90;;
49109;SDS011;34921;52.320;16.142;2023-07-31T04:21:52;5.53;;;3.20;;
49109;SDS011;34921;52.320;16.142;2023-07-31T04:24:20;5.55;;;2.77;;
49109;SDS011;34921;52.320;16.142;2023-07-31T04:26:52;7.60;;;2.92;;
49109;SDS011;34921;52.320;16.142;2023-07-31T04:29:20;5.30;;;2.95;;
49109;SDS011;34921;52.320;16.142;2023-07-31T04:31:48;6.75;;;3.02;;
49109;SDS011;34921;52.320;16.142;2023-07-31T04:34:16;8.50;;;3.30;;
49109;SDS011;34921;52.320;16.142;2023-07-31T04:36:44;6.10;;;2.65;;
49109;SDS011;34921;52.320;16.142;2023-07-31T04:39:12;5.70;;;2.80;;
49109;SDS011;34921;52.320;16.142;2023-07-31T04:41:40;6.58;;;3.40;;
49109;SDS011;34921;52.320;16.142;2023-07-31T04:44:07;5.95;;;3.30;;
49109;SDS011;34921;52.320;16.142;2023-07-31T04:46:36;4.05;;;2.90;;
49109;SDS011;34921;52.320;16.142;2023-07-31T04:49:05;5.25;;;2.98;;
49109;SDS011;34921;52.320;16.142;2023-07-31T04:51:33;7.55;;;3.12;;
49109;SDS011;34921;52.320;16.142;2023-07-31T04:54:01;5.03;;;2.90;;
49109;SDS011;34921;52.320;16.142;2023-07-31T04:56:29;6.90;;;2.87;;
49109;SDS011;34921;52.320;16.142;2023-07-31T04:58:57;6.67;;;2.97;;
49109;SDS011;34921;52.320;16.142;2023-07-31T05:01:25;8.30;;;3.20;;
49109;SDS011;34921;52.320;16.142;2023-07-31T05:03:53;6.42;;;2.75;;
49109;SDS011;34921;52.320;16.142;2023-07-31T05:06:21;9.28;;;3.12;;
49109;SDS011;34921;52.320;16.142;2023-07-31T05:08:49;7.30;;;2.92;;
49109;SDS011;34921;52.320;16.142;2023-07-31T05:11:18;6.42;;;3.12;;
49109;SDS011;34921;52.320;16.142;2023-07-31T05:13:46;7.92;;;2.90;;
49109;SDS011;34921;52.320;16.142;2023-07-31T05:16:14;7.45;;;3.00;;
49109;SDS011;34921;52.320;16.142;2023-07-31T05:18:42;4.03;;;2.27;;
49109;SDS011;34921;52.320;16.142;2023-07-31T05:21:10;6.08;;;2.67;;
49109;SDS011;34921;52.320;16.142;2023-07-31T05:23:38;6.78;;;3.02;;
49109;SDS011;34921;52.320;16.142;2023-07-31T05:26:06;7.03;;;2.87;;
49109;SDS011;34921;52.320;16.142;2023-07-31T05:31:05;8.85;;;2.83;;
49109;SDS011;34921;52.320;16.142;2023-07-31T05:33:34;6.53;;;2.90;;
49109;SDS011;34921;52.320;16.142;2023-07-31T05:36:02;5.65;;;3.02;;
49109;SDS011;34921;52.320;16.142;2023-07-31T05:38:30;4.50;;;2.52;;
49109;SDS011;34921;52.320;16.142;2023-07-31T05:40:58;6.17;;;2.65;;
49109;SDS011;34921;52.320;16.142;2023-07-31T05:43:26;5.42;;;2.60;;
49109;SDS011;34921;52.320;16.142;2023-07-31T05:45:54;7.47;;;2.72;;
49109;SDS011;34921;52.320;16.142;2023-07-31T05:48:22;6.08;;;2.58;;
49109;SDS011;34921;52.320;16.142;2023-07-31T05:50:50;5.85;;;2.92;;
49109;SDS011;34921;52.320;16.142;2023-07-31T05:53:18;5.87;;;2.67;;
49109;SDS011;34921;52.320;16.142;2023-07-31T05:55:46;6.40;;;2.95;;
49109;SDS011;34921;52.320;16.142;2023-07-31T05:58:14;5.83;;;2.67;;
49109;SDS011;34921;52.320;16.142;2023-07-31T06:00:42;6.75;;;2.70;;
49109;SDS011;34921;52.320;16.142;2023-07-31T06:03:10;7.05;;;2.62;;
49109;SDS011;34921;52.320;16.142;2023-07-31T06:05:38;5.15;;;2.60;;
49109;SDS011;34921;52.320;16.142;2023-07-31T06:08:05;5.78;;;2.52;;
49109;SDS011;34921;52.320;16.142;2023-07-31T06:10:33;4.45;;;2.37;;
49109;SDS011;34921;52.320;16.142;2023-07-31T06:13:02;8.65;;;2.40;;
49109;SDS011;34921;52.320;16.142;2023-07-31T06:15:30;5.92;;;2.67;;
49109;SDS011;34921;52.320;16.142;2023-07-31T06:18:00;5.40;;;2.60;;
49109;SDS011;34921;52.320;16.142;2023-07-31T06:20:29;5.53;;;2.47;;
49109;SDS011;34921;52.320;16.142;2023-07-31T06:22:57;5.83;;;2.60;;
49109;SDS011;34921;52.320;16.142;2023-07-31T06:25:25;8.63;;;2.52;;
49109;SDS011;34921;52.320;16.142;2023-07-31T06:27:53;5.50;;;2.95;;
49109;SDS011;34921;52.320;16.142;2023-07-31T06:30:21;7.72;;;2.35;;
49109;SDS011;34921;52.320;16.142;2023-07-31T06:32:49;5.78;;;2.25;;
49109;SDS011;34921;52.320;16.142;2023-07-31T06:35:17;4.90;;;2.20;;
49109;SDS011;34921;52.320;16.142;2023-07-31T06:37:45;5.67;;;2.20;;
49109;SDS011;34921;52.320;16.142;2023-07-31T06:40:13;6.28;;;2.50;;
49109;SDS011;34921;52.320;16.142;2023-07-31T06:42:41;4.95;;;2.30;;
49109;SDS011;34921;52.320;16.142;2023-07-31T06:45:09;4.08;;;2.08;;
49109;SDS011;34921;52.320;16.142;2023-07-31T06:47:37;5.50;;;2.33;;
49109;SDS011;34921;52.320;16.142;2023-07-31T06:50:05;6.12;;;1.90;;
49109;SDS011;34921;52.320;16.142;2023-07-31T06:52:34;4.95;;;1.90;;
49109;SDS011;34921;52.320;16.142;2023-07-31T06:55:02;6.97;;;1.82;;
49109;SDS011;34921;52.320;16.142;2023-07-31T06:57:31;6.10;;;2.00;;
49109;SDS011;34921;52.320;16.142;2023-07-31T06:59:59;7.67;;;2.33;;
49109;SDS011;34921;52.320;16.142;2023-07-31T07:02:27;6.20;;;2.40;;
49109;SDS011;34921;52.320;16.142;2023-07-31T07:04:55;4.80;;;1.80;;
49109;SDS011;34921;52.320;16.142;2023-07-31T07:07:23;7.47;;;1.80;;
49109;SDS011;34921;52.320;16.142;2023-07-31T07:09:51;5.87;;;1.70;;
49109;SDS011;34921;52.320;16.142;2023-07-31T07:12:19;4.97;;;1.77;;
49109;SDS011;34921;52.320;16.142;2023-07-31T07:14:47;5.77;;;1.93;;
49109;SDS011;34921;52.320;16.142;2023-07-31T07:17:15;6.10;;;1.87;;
49109;SDS011;34921;52.320;16.142;2023-07-31T07:19:43;6.10;;;1.60;;
49109;SDS011;34921;52.320;16.142;2023-07-31T07:22:11;4.47;;;1.72;;
49109;SDS011;34921;52.320;16.142;2023-07-31T07:24:39;5.67;;;1.75;;
49109;SDS011;34921;52.320;16.142;2023-07-31T07:27:07;6.67;;;1.65;;
49109;SDS011;34921;52.320;16.142;2023-07-31T07:29:35;6.63;;;1.90;;
49109;SDS011;34921;52.320;16.142;2023-07-31T07:32:03;6.62;;;2.17;;
49109;SDS011;34921;52.320;16.142;2023-07-31T07:34:31;6.08;;;1.60;;
49109;SDS011;34921;52.320;16.142;2023-07-31T07:36:59;5.35;;;1.72;;
49109;SDS011;34921;52.320;16.142;2023-07-31T07:39:27;5.50;;;2.10;;
49109;SDS011;34921;52.320;16.142;2023-07-31T07:41:55;4.37;;;1.77;;
49109;SDS011;34921;52.320;16.142;2023-07-31T07:44:23;5.67;;;1.70;;
49109;SDS011;34921;52.320;16.142;2023-07-31T07:46:51;7.67;;;1.80;;
49109;SDS011;34921;52.320;16.142;2023-07-31T07:49:19;4.50;;;1.60;;
49109;SDS011;34921;52.320;16.142;2023-07-31T07:51:50;6.62;;;1.80;;
49109;SDS011;34921;52.320;16.142;2023-07-31T07:54:18;4.58;;;1.77;;
49109;SDS011;34921;52.320;16.142;2023-07-31T07:56:47;7.10;;;1.97;;
49109;SDS011;34921;52.320;16.142;2023-07-31T07:59:15;3.00;;;1.47;;
49109;SDS011;34921;52.320;16.142;2023-07-31T08:01:43;4.62;;;1.77;;
49109;SDS011;34921;52.320;16.142;2023-07-31T08:04:11;3.55;;;1.30;;
49109;SDS011;34921;52.320;16.142;2023-07-31T08:06:39;5.42;;;1.80;;
49109;SDS011;34921;52.320;16.142;2023-07-31T08:09:07;5.10;;;1.50;;
49109;SDS011;34921;52.320;16.142;2023-07-31T08:11:36;5.23;;;1.50;;
49109;SDS011;34921;52.320;16.142;2023-07-31T08:14:04;4.90;;;1.65;;
49109;SDS011;34921;52.320;16.142;2023-07-31T08:16:32;4.55;;;1.75;;
49109;SDS011;34921;52.320;16.142;2023-07-31T08:19:00;4.58;;;1.55;;
49109;SDS011;34921;52.320;16.142;2023-07-31T08:21:28;4.35;;;1.60;;
49109;SDS011;34921;52.320;16.142;2023-07-31T08:23:57;6.40;;;1.57;;
49109;SDS011;34921;52.320;16.142;2023-07-31T08:26:25;4.37;;;1.70;;
49109;SDS011;34921;52.320;16.142;2023-07-31T08:28:53;5.92;;;1.92;;
49109;SDS011;34921;52.320;16.142;2023-07-31T08:31:21;5.30;;;1.72;;
49109;SDS011;34921;52.320;16.142;2023-07-31T08:33:49;4.65;;;1.82;;
49109;SDS011;34921;52.320;16.142;2023-07-31T08:36:17;6.03;;;1.98;;
49109;SDS011;34921;52.320;16.142;2023-07-31T08:38:45;7.80;;;1.87;;
49109;SDS011;34921;52.320;16.142;2023-07-31T08:41:13;6.60;;;1.60;;
49109;SDS011;34921;52.320;16.142;2023-07-31T08:43:41;5.45;;;1.82;;
49109;SDS011;34921;52.320;16.142;2023-07-31T08:46:09;6.60;;;2.10;;
49109;SDS011;34921;52.320;16.142;2023-07-31T08:48:38;6.50;;;2.55;;
49109;SDS011;34921;52.320;16.142;2023-07-31T08:51:06;3.92;;;2.08;;
49109;SDS011;34921;52.320;16.142;2023-07-31T08:53:35;4.17;;;1.85;;
49109;SDS011;34921;52.320;16.142;2023-07-31T08:56:03;6.33;;;1.98;;
49109;SDS011;34921;52.320;16.142;2023-07-31T08:58:32;6.42;;;2.10;;
49109;SDS011;34921;52.320;16.142;2023-07-31T09:01:03;9.10;;;2.60;;
49109;SDS011;34921;52.320;16.142;2023-07-31T09:03:33;4.00;;;2.45;;
49109;SDS011;34921;52.320;16.142;2023-07-31T09:06:03;6.55;;;2.27;;
49109;SDS011;34921;52.320;16.142;2023-07-31T09:08:33;7.42;;;2.37;;
49109;SDS011;34921;52.320;16.142;2023-07-31T09:11:02;5.58;;;2.10;;
49109;SDS011;34921;52.320;16.142;2023-07-31T09:13:33;5.92;;;2.05;;
49109;SDS011;34921;52.320;16.142;2023-07-31T09:16:01;6.08;;;2.60;;
49109;SDS011;34921;52.320;16.142;2023-07-31T09:18:29;5.78;;;2.50;;
49109;SDS011;34921;52.320;16.142;2023-07-31T09:21:01;4.83;;;2.40;;
49109;SDS011;34921;52.320;16.142;2023-07-31T09:23:40;5.53;;;2.05;;
49109;SDS011;34921;52.320;16.142;2023-07-31T09:26:09;5.00;;;2.10;;
49109;SDS011;34921;52.320;16.142;2023-07-31T09:28:37;5.72;;;2.30;;
49109;SDS011;34921;52.320;16.142;2023-07-31T09:31:05;5.78;;;2.12;;
49109;SDS011;34921;52.320;16.142;2023-07-31T09:33:33;5.78;;;2.42;;
49109;SDS011;34921;52.320;16.142;2023-07-31T09:36:02;5.78;;;2.40;;
49109;SDS011;34921;52.320;16.142;2023-07-31T09:38:32;7.12;;;2.60;;
49109;SDS011;34921;52.320;16.142;2023-07-31T09:41:00;5.40;;;2.42;;
49109;SDS011;34921;52.320;16.142;2023-07-31T09:45:59;8.13;;;2.75;;
49109;SDS011;34921;52.320;16.142;2023-07-31T09:51:01;6.50;;;2.10;;
49109;SDS011;34921;52.320;16.142;2023-07-31T09:56:06;5.78;;;2.22;;
49109;SDS011;34921;52.320;16.142;2023-07-31T10:01:07;4.00;;;2.10;;
49109;SDS011;34921;52.320;16.142;2023-07-31T10:06:05;5.67;;;2.70;;
49109;SDS011;34921;52.320;16.142;2023-07-31T10:08:34;4.00;;;2.10;;
49109;SDS011;34921;52.320;16.142;2023-07-31T10:13:34;7.30;;;2.33;;
49109;SDS011;34921;52.320;16.142;2023-07-31T10:16:02;4.70;;;2.42;;
49109;SDS011;34921;52.320;16.142;2023-07-31T10:18:30;8.55;;;2.85;;
49109;SDS011;34921;52.320;16.142;2023-07-31T10:23:30;5.67;;;2.27;;
49109;SDS011;34921;52.320;16.142;2023-07-31T10:28:36;4.15;;;2.20;;
49109;SDS011;34921;52.320;16.142;2023-07-31T10:31:05;5.53;;;2.45;;
49109;SDS011;34921;52.320;16.142;2023-07-31T10:33:33;4.55;;;2.08;;
49109;SDS011;34921;52.320;16.142;2023-07-31T10:36:12;5.20;;;2.05;;
49109;SDS011;34921;52.320;16.142;2023-07-31T10:38:49;4.10;;;2.00;;
49109;SDS011;34921;52.320;16.142;2023-07-31T10:41:30;6.30;;;2.63;;
49109;SDS011;34921;52.320;16.142;2023-07-31T10:43:59;3.22;;;1.80;;
49109;SDS011;34921;52.320;16.142;2023-07-31T10:46:32;3.87;;;1.90;;
49109;SDS011;34921;52.320;16.142;2023-07-31T10:49:02;3.85;;;1.92;;
49109;SDS011;34921;52.320;16.142;2023-07-31T10:51:34;3.37;;;2.10;;
49109;SDS011;34921;52.320;16.142;2023-07-31T10:54:12;4.83;;;2.20;;
49109;SDS011;34921;52.320;16.142;2023-07-31T10:56:45;3.30;;;2.20;;
49109;SDS011;34921;52.320;16.142;2023-07-31T10:59:14;4.20;;;2.40;;
49109;SDS011;34921;52.320;16.142;2023-07-31T11:04:27;4.50;;;2.12;;
49109;SDS011;34921;52.320;16.142;2023-07-31T11:06:57;4.72;;;2.30;;
49109;SDS011;34921;52.320;16.142;2023-07-31T11:09:29;4.95;;;2.45;;
49109;SDS011;34921;52.320;16.142;2023-07-31T11:12:01;4.12;;;2.30;;
49109;SDS011;34921;52.320;16.142;2023-07-31T11:14:29;9.58;;;2.35;;
49109;SDS011;34921;52.320;16.142;2023-07-31T11:16:57;5.30;;;2.42;;
49109;SDS011;34921;52.320;16.142;2023-07-31T11:19:25;4.30;;;2.42;;
49109;SDS011;34921;52.320;16.142;2023-07-31T11:21:53;3.58;;;2.42;;
49109;SDS011;34921;52.320;16.142;2023-07-31T11:24:21;5.50;;;2.70;;
49109;SDS011;34921;52.320;16.142;2023-07-31T11:26:52;5.30;;;2.65;;
49109;SDS011;34921;52.320;16.142;2023-07-31T11:29:21;4.35;;;2.55;;
49109;SDS011;34921;52.320;16.142;2023-07-31T11:31:56;6.78;;;2.67;;
49109;SDS011;34921;52.320;16.142;2023-07-31T11:34:24;3.77;;;2.77;;
49109;SDS011;34921;52.320;16.142;2023-07-31T11:36:53;5.92;;;2.55;;
49109;SDS011;34921;52.320;16.142;2023-07-31T11:39:23;5.35;;;2.67;;
49109;SDS011;34921;52.320;16.142;2023-07-31T11:41:51;4.22;;;2.70;;
49109;SDS011;34921;52.320;16.142;2023-07-31T11:44:19;5.87;;;2.50;;
49109;SDS011;34921;52.320;16.142;2023-07-31T11:46:46;6.70;;;2.65;;
49109;SDS011;34921;52.320;16.142;2023-07-31T11:49:15;4.92;;;3.10;;
49109;SDS011;34921;52.320;16.142;2023-07-31T11:51:43;4.17;;;2.62;;
49109;SDS011;34921;52.320;16.142;2023-07-31T11:54:11;8.20;;;2.75;;
49109;SDS011;34921;52.320;16.142;2023-07-31T11:56:41;5.50;;;2.80;;
49109;SDS011;34921;52.320;16.142;2023-07-31T11:59:09;8.23;;;3.10;;
49109;SDS011;34921;52.320;16.142;2023-07-31T12:01:37;6.47;;;2.42;;
49109;SDS011;34921;52.320;16.142;2023-07-31T12:04:06;6.25;;;2.47;;
49109;SDS011;34921;52.320;16.142;2023-07-31T12:06:37;6.45;;;2.60;;
49109;SDS011;34921;52.320;16.142;2023-07-31T12:09:05;6.03;;;3.00;;
49109;SDS011;34921;52.320;16.142;2023-07-31T12:11:52;5.37;;;2.87;;
49109;SDS011;34921;52.320;16.142;2023-07-31T12:14:23;6.75;;;2.58;;
49109;SDS011;34921;52.320;16.142;2023-07-31T12:17:00;6.00;;;2.95;;
49109;SDS011;34921;52.320;16.142;2023-07-31T12:19:31;6.20;;;3.00;;
49109;SDS011;34921;52.320;16.142;2023-07-31T12:22:00;4.58;;;2.50;;
49109;SDS011;34921;52.320;16.142;2023-07-31T12:24:28;6.10;;;2.62;;
49109;SDS011;34921;52.320;16.142;2023-07-31T12:26:56;7.42;;;2.92;;
49109;SDS011;34921;52.320;16.142;2023-07-31T12:29:33;5.30;;;2.60;;
49109;SDS011;34921;52.320;16.142;2023-07-31T12:32:03;6.15;;;2.77;;
49109;SDS011;34921;52.320;16.142;2023-07-31T12:34:31;6.30;;;2.42;;
49109;SDS011;34921;52.320;16.142;2023-07-31T12:37:09;5.25;;;2.75;;
49109;SDS011;34921;52.320;16.142;2023-07-31T12:39:38;7.15;;;2.70;;
49109;SDS011;34921;52.320;16.142;2023-07-31T12:42:06;4.90;;;2.40;;
49109;SDS011;34921;52.320;16.142;2023-07-31T12:44:34;4.97;;;2.50;;
49109;SDS011;34921;52.320;16.142;2023-07-31T12:47:02;4.80;;;2.33;;
49109;SDS011;34921;52.320;16.142;2023-07-31T12:49:31;4.45;;;2.42;;
49109;SDS011;34921;52.320;16.142;2023-07-31T12:51:59;5.35;;;2.37;;
49109;SDS011;34921;52.320;16.142;2023-07-31T12:54:27;5.30;;;2.50;;
49109;SDS011;34921;52.320;16.142;2023-07-31T12:56:55;6.37;;;2.60;;
49109;SDS011;34921;52.320;16.142;2023-07-31T12:59:23;5.90;;;2.17;;
49109;SDS011;34921;52.320;16.142;2023-07-31T13:01:51;5.40;;;2.65;;
49109;SDS011;34921;52.320;16.142;2023-07-31T13:04:19;6.03;;;2.58;;
49109;SDS011;34921;52.320;16.142;2023-07-31T13:06:47;6.10;;;2.50;;
49109;SDS011;34921;52.320;16.142;2023-07-31T13:09:15;3.95;;;2.45;;
49109;SDS011;34921;52.320;16.142;2023-07-31T13:11:45;5.87;;;2.50;;
49109;SDS011;34921;52.320;16.142;2023-07-31T13:14:13;4.42;;;2.77;;
49109;SDS011;34921;52.320;16.142;2023-07-31T13:16:41;5.10;;;2.47;;
49109;SDS011;34921;52.320;16.142;2023-07-31T13:19:09;3.72;;;1.87;;
49109;SDS011;34921;52.320;16.142;2023-07-31T13:21:37;5.40;;;2.05;;
49109;SDS011;34921;52.320;16.142;2023-07-31T13:24:05;4.75;;;2.27;;
49109;SDS011;34921;52.320;16.142;2023-07-31T13:26:33;3.77;;;2.00;;
49109;SDS011;34921;52.320;16.142;2023-07-31T13:29:03;7.80;;;2.80;;
49109;SDS011;34921;52.320;16.142;2023-07-31T13:31:31;4.08;;;2.30;;
49109;SDS011;34921;52.320;16.142;2023-07-31T13:33:59;4.42;;;2.45;;
49109;SDS011;34921;52.320;16.142;2023-07-31T13:36:26;7.75;;;2.55;;
49109;SDS011;34921;52.320;16.142;2023-07-31T13:38:54;6.05;;;2.37;;
49109;SDS011;34921;52.320;16.142;2023-07-31T13:41:22;6.80;;;2.45;;
49109;SDS011;34921;52.320;16.142;2023-07-31T13:43:50;5.70;;;2.55;;
49109;SDS011;34921;52.320;16.142;2023-07-31T13:46:18;5.58;;;2.70;;
49109;SDS011;34921;52.320;16.142;2023-07-31T13:48:46;5.50;;;2.17;;
49109;SDS011;34921;52.320;16.142;2023-07-31T13:51:14;5.43;;;2.40;;
49109;SDS011;34921;52.320;16.142;2023-07-31T13:53:42;5.80;;;2.40;;
49109;SDS011;34921;52.320;16.142;2023-07-31T13:56:10;3.90;;;2.20;;
49109;SDS011;34921;52.320;16.142;2023-07-31T13:58:38;4.08;;;2.25;;
49109;SDS011;34921;52.320;16.142;2023-07-31T14:01:06;4.90;;;2.30;;
49109;SDS011;34921;52.320;16.142;2023-07-31T14:03:34;4.53;;;2.55;;
49109;SDS011;34921;52.320;16.142;2023-07-31T14:06:02;7.97;;;2.12;;
49109;SDS011;34921;52.320;16.142;2023-07-31T14:08:30;5.03;;;2.30;;
49109;SDS011;34921;52.320;16.142;2023-07-31T14:10:58;6.83;;;2.40;;
49109;SDS011;34921;52.320;16.142;2023-07-31T14:13:26;5.35;;;2.22;;
49109;SDS011;34921;52.320;16.142;2023-07-31T14:15:54;5.87;;;2.20;;
49109;SDS011;34921;52.320;16.142;2023-07-31T14:18:22;3.83;;;2.00;;
49109;SDS011;34921;52.320;16.142;2023-07-31T14:20:51;3.65;;;2.05;;
49109;SDS011;34921;52.320;16.142;2023-07-31T14:23:19;4.17;;;2.20;;
49109;SDS011;34921;52.320;16.142;2023-07-31T14:25:47;3.75;;;2.22;;
49109;SDS011;34921;52.320;16.142;2023-07-31T14:28:15;5.00;;;2.12;;
49109;SDS011;34921;52.320;16.142;2023-07-31T14:30:43;4.28;;;2.12;;
49109;SDS011;34921;52.320;16.142;2023-07-31T14:33:11;3.42;;;2.05;;
49109;SDS011;34921;52.320;16.142;2023-07-31T14:35:39;4.55;;;2.20;;
49109;SDS011;34921;52.320;16.142;2023-07-31T14:38:09;5.33;;;2.08;;
49109;SDS011;34921;52.320;16.142;2023-07-31T14:40:39;5.85;;;2.20;;
49109;SDS011;34921;52.320;16.142;2023-07-31T14:43:07;4.17;;;2.45;;
49109;SDS011;34921;52.320;16.142;2023-07-31T14:45:35;3.62;;;1.77;;
49109;SDS011;34921;52.320;16.142;2023-07-31T14:48:04;4.95;;;1.92;;
49109;SDS011;34921;52.320;16.142;2023-07-31T14:50:32;6.37;;;1.98;;
49109;SDS011;34921;52.320;16.142;2023-07-31T14:53:00;3.40;;;1.67;;
49109;SDS011;34921;52.320;16.142;2023-07-31T14:55:29;3.52;;;1.77;;
49109;SDS011;34921;52.320;16.142;2023-07-31T14:57:57;5.65;;;1.98;;
49109;SDS011;34921;52.320;16.142;2023-07-31T15:00:25;3.08;;;1.60;;
49109;SDS011;34921;52.320;16.142;2023-07-31T15:02:54;2.75;;;1.82;;
49109;SDS011;34921;52.320;16.142;2023-07-31T15:05:22;4.60;;;2.00;;
49109;SDS011;34921;52.320;16.142;2023-07-31T15:07:50;4.45;;;1.72;;
49109;SDS011;34921;52.320;16.142;2023-07-31T15:10:20;3.70;;;1.52;;
49109;SDS011;34921;52.320;16.142;2023-07-31T15:12:50;3.75;;;1.80;;
49109;SDS011;34921;52.320;16.142;2023-07-31T15:15:18;4.30;;;1.82;;
49109;SDS011;34921;52.320;16.142;2023-07-31T15:17:46;5.47;;;1.95;;